sensor_id;sensor_type;location;lat;lon;timestamp;pressure;altitude;pressure_sealevel;temperature;humidity
65872;BME280;52653;50.080;21.992;2023-06-10T00:00:22;98827.34;;;16.96;93.91
65872;BME280;52653;50.080;21.992;2023-06-10T00:03:35;98825.33;;;16.93;93.76
65872;BME280;52653;50.080;21.992;2023-06-10T00:06:28;98823.84;;;16.91;94.12
65872;BME280;52653;50.080;21.992;2023-06-10T00:09:35;98822.46;;;16.89;94.35
65872;BME280;52653;50.080;21.992;2023-06-10T00:12:28;98818.97;;;16.88;94.14
65872;BME280;52653;50.080;21.992;2023-06-10T00:15:22;98818.38;;;16.85;94.29
65872;BME280;52653;50.080;21.992;2023-06-10T00:18:15;98817.08;;;16.83;94.28
65872;BME280;52653;50.080;21.992;2023-06-10T00:21:09;98812.11;;;16.78;94.38
65872;BME280;52653;50.080;21.992;2023-06-10T00:24:06;98812.07;;;16.74;94.51
65872;BME280;52653;50.080;21.992;2023-06-10T00:27:01;98811.89;;;16.70;94.38
65872;BME280;52653;50.080;21.992;2023-06-10T00:29:54;98815.40;;;16.66;94.66
65872;BME280;52653;50.080;21.992;2023-06-10T00:32:47;98815.50;;;16.63;94.86
65872;BME280;52653;50.080;21.992;2023-06-10T00:35:41;98817.56;;;16.60;94.91
65872;BME280;52653;50.080;21.992;2023-06-10T00:38:34;98820.31;;;16.58;94.94
65872;BME280;52653;50.080;21.992;2023-06-10T00:41:21;98819.04;;;16.54;95.29
65872;BME280;52653;50.080;21.992;2023-06-10T00:44:15;98820.02;;;16.51;95.30
65872;BME280;52653;50.080;21.992;2023-06-10T00:47:08;98821.23;;;16.47;95.26
65872;BME280;52653;50.080;21.992;2023-06-10T00:50:02;98822.58;;;16.44;95.32
65872;BME280;52653;50.080;21.992;2023-06-10T00:52:58;98821.09;;;16.42;95.17
65872;BME280;52653;50.080;21.992;2023-06-10T00:55:52;98822.09;;;16.38;95.10
65872;BME280;52653;50.080;21.992;2023-06-10T00:58:45;98823.48;;;16.34;95.08
65872;BME280;52653;50.080;21.992;2023-06-10T01:01:41;98818.58;;;16.29;94.98
65872;BME280;52653;50.080;21.992;2023-06-10T01:04:27;98818.01;;;16.25;94.91
65872;BME280;52653;50.080;21.992;2023-06-10T01:07:24;98816.44;;;16.19;94.88
65872;BME280;52653;50.080;21.992;2023-06-10T01:10:16;98817.16;;;16.14;94.68
65872;BME280;52653;50.080;21.992;2023-06-10T01:13:14;98818.40;;;16.09;94.73
65872;BME280;52653;50.080;21.992;2023-06-10T01:16:08;98815.05;;;16.04;94.69
65872;BME280;52653;50.080;21.992;2023-06-10T01:18:42;98816.93;;;16.01;94.90
65872;BME280;52653;50.080;21.992;2023-06-10T01:21:35;98813.94;;;16.00;94.87
65872;BME280;52653;50.080;21.992;2023-06-10T01:24:23;98814.16;;;15.99;95.07
65872;BME280;52653;50.080;21.992;2023-06-10T01:27:17;98817.20;;;15.98;95.18
65872;BME280;52653;50.080;21.992;2023-06-10T01:30:17;98820.59;;;15.97;95.17
65872;BME280;52653;50.080;21.992;2023-06-10T01:33:14;98824.17;;;15.96;95.44
65872;BME280;52653;50.080;21.992;2023-06-10T01:35:55;98823.84;;;15.96;95.42
65872;BME280;52653;50.080;21.992;2023-06-10T01:38:51;98825.40;;;15.96;95.61
65872;BME280;52653;50.080;21.992;2023-06-10T01:41:45;98824.16;;;15.96;95.70
65872;BME280;52653;50.080;21.992;2023-06-10T01:44:40;98821.48;;;15.97;95.76
65872;BME280;52653;50.080;21.992;2023-06-10T01:47:33;98822.83;;;15.99;96.03
65872;BME280;52653;50.080;21.992;2023-06-10T01:50:08;98824.55;;;16.01;96.09
65872;BME280;52653;50.080;21.992;2023-06-10T01:53:03;98824.69;;;16.02;96.03
65872;BME280;52653;50.080;21.992;2023-06-10T01:55:58;98824.11;;;16.03;96.30
65872;BME280;52653;50.080;21.992;2023-06-10T01:58:51;98830.13;;;16.03;96.09
65872;BME280;52653;50.080;21.992;2023-06-10T02:01:47;98833.80;;;16.04;96.41
65872;BME280;52653;50.080;21.992;2023-06-10T02:04:40;98835.89;;;16.05;96.57
65872;BME280;52653;50.080;21.992;2023-06-10T02:07:33;98834.13;;;16.05;96.66
65872;BME280;52653;50.080;21.992;2023-06-10T02:10:26;98838.63;;;16.03;96.87
65872;BME280;52653;50.080;21.992;2023-06-10T02:13:20;98840.10;;;16.01;97.20
65872;BME280;52653;50.080;21.992;2023-06-10T02:16:13;98834.63;;;16.00;97.26
65872;BME280;52653;50.080;21.992;2023-06-10T02:19:09;98838.19;;;16.00;97.42
65872;BME280;52653;50.080;21.992;2023-06-10T02:21:56;98833.98;;;15.98;97.40
65872;BME280;52653;50.080;21.992;2023-06-10T02:24:49;98831.39;;;15.97;97.52
65872;BME280;52653;50.080;21.992;2023-06-10T02:27:42;98829.28;;;15.97;97.48
65872;BME280;52653;50.080;21.992;2023-06-10T02:30:28;98833.34;;;15.97;97.46
65872;BME280;52653;50.080;21.992;2023-06-10T02:33:21;98831.73;;;15.97;97.50
65872;BME280;52653;50.080;21.992;2023-06-10T02:36:14;98838.07;;;15.98;97.56
65872;BME280;52653;50.080;21.992;2023-06-10T02:39:07;98835.34;;;16.00;97.45
65872;BME280;52653;50.080;21.992;2023-06-10T02:42:00;98841.88;;;16.01;97.23
65872;BME280;52653;50.080;21.992;2023-06-10T02:44:53;98846.64;;;16.01;97.05
65872;BME280;52653;50.080;21.992;2023-06-10T02:47:46;98851.58;;;16.02;97.08
65872;BME280;52653;50.080;21.992;2023-06-10T02:50:39;98852.91;;;16.04;97.02
65872;BME280;52653;50.080;21.992;2023-06-10T02:53:32;98846.30;;;16.06;97.13
65872;BME280;52653;50.080;21.992;2023-06-10T02:56:25;98844.32;;;16.07;96.98
65872;BME280;52653;50.080;21.992;2023-06-10T02:59:17;98842.88;;;16.07;96.96
65872;BME280;52653;50.080;21.992;2023-06-10T03:02:10;98844.18;;;16.10;97.11
65872;BME280;52653;50.080;21.992;2023-06-10T03:05:04;98847.98;;;16.13;96.94
65872;BME280;52653;50.080;21.992;2023-06-10T03:08:08;98848.25;;;16.16;96.82
65872;BME280;52653;50.080;21.992;2023-06-10T03:11:01;98852.38;;;16.19;96.66
65872;BME280;52653;50.080;21.992;2023-06-10T03:13:54;98851.31;;;16.23;96.73
65872;BME280;52653;50.080;21.992;2023-06-10T03:16:47;98855.77;;;16.28;96.50
65872;BME280;52653;50.080;21.992;2023-06-10T03:19:39;98856.16;;;16.31;96.56
65872;BME280;52653;50.080;21.992;2023-06-10T03:22:32;98856.84;;;16.37;96.67
65872;BME280;52653;50.080;21.992;2023-06-10T03:25:25;98855.87;;;16.44;96.60
65872;BME280;52653;50.080;21.992;2023-06-10T03:28:19;98857.26;;;16.50;96.29
65872;BME280;52653;50.080;21.992;2023-06-10T03:31:12;98858.61;;;16.56;96.36
65872;BME280;52653;50.080;21.992;2023-06-10T03:33:58;98860.82;;;16.63;95.98
65872;BME280;52653;50.080;21.992;2023-06-10T03:36:44;98864.96;;;16.71;95.87
65872;BME280;52653;50.080;21.992;2023-06-10T03:39:37;98868.65;;;16.81;95.88
65872;BME280;52653;50.080;21.992;2023-06-10T03:42:12;98867.85;;;16.93;95.58
65872;BME280;52653;50.080;21.992;2023-06-10T03:45:06;98875.19;;;17.05;95.10
65872;BME280;52653;50.080;21.992;2023-06-10T03:48:00;98871.48;;;17.18;94.81
65872;BME280;52653;50.080;21.992;2023-06-10T03:50:54;98871.22;;;17.33;94.63
65872;BME280;52653;50.080;21.992;2023-06-10T03:53:41;98870.64;;;17.51;94.45
65872;BME280;52653;50.080;21.992;2023-06-10T03:56:15;98863.66;;;17.71;93.56
65872;BME280;52653;50.080;21.992;2023-06-10T03:59:04;98864.80;;;17.90;92.19
65872;BME280;52653;50.080;21.992;2023-06-10T04:01:57;98862.92;;;18.12;91.58
65872;BME280;52653;50.080;21.992;2023-06-10T04:04:51;98862.02;;;18.37;90.98
65872;BME280;52653;50.080;21.992;2023-06-10T04:07:44;98863.63;;;18.60;90.21
65872;BME280;52653;50.080;21.992;2023-06-10T04:10:37;98859.84;;;18.85;89.40
65872;BME280;52653;50.080;21.992;2023-06-10T04:13:30;98858.10;;;19.03;87.66
65872;BME280;52653;50.080;21.992;2023-06-10T04:16:23;98855.63;;;19.14;85.94
65872;BME280;52653;50.080;21.992;2023-06-10T04:19:15;98858.27;;;19.25;85.28
65872;BME280;52653;50.080;21.992;2023-06-10T04:22:09;98854.96;;;19.42;85.20
65872;BME280;52653;50.080;21.992;2023-06-10T04:25:01;98854.23;;;19.64;85.42
65872;BME280;52653;50.080;21.992;2023-06-10T04:27:44;98855.12;;;19.85;84.35
65872;BME280;52653;50.080;21.992;2023-06-10T04:30:37;98859.87;;;20.00;82.66
65872;BME280;52653;50.080;21.992;2023-06-10T04:33:30;98859.73;;;20.16;82.42
65872;BME280;52653;50.080;21.992;2023-06-10T04:36:17;98863.33;;;20.33;81.92
65872;BME280;52653;50.080;21.992;2023-06-10T04:39:10;98864.76;;;20.49;81.50
65872;BME280;52653;50.080;21.992;2023-06-10T04:42:03;98867.05;;;20.67;80.45
65872;BME280;52653;50.080;21.992;2023-06-10T04:44:57;98864.38;;;20.76;79.33
65872;BME280;52653;50.080;21.992;2023-06-10T04:47:50;98870.54;;;20.78;78.74
65872;BME280;52653;50.080;21.992;2023-06-10T04:50:43;98872.86;;;20.68;77.18
65872;BME280;52653;50.080;21.992;2023-06-10T04:53:39;98874.33;;;20.57;77.75
65872;BME280;52653;50.080;21.992;2023-06-10T04:56:33;98876.34;;;20.50;77.70
65872;BME280;52653;50.080;21.992;2023-06-10T04:59:19;98875.80;;;20.43;77.89
65872;BME280;52653;50.080;21.992;2023-06-10T05:02:12;98876.73;;;20.42;78.71
65872;BME280;52653;50.080;21.992;2023-06-10T05:05:05;98879.29;;;20.41;78.40
65872;BME280;52653;50.080;21.992;2023-06-10T05:07:58;98879.09;;;20.35;78.43
65872;BME280;52653;50.080;21.992;2023-06-10T05:10:51;98878.93;;;20.34;78.10
65872;BME280;52653;50.080;21.992;2023-06-10T05:13:44;98881.77;;;20.31;78.26
65872;BME280;52653;50.080;21.992;2023-06-10T05:16:35;98882.78;;;20.28;77.85
65872;BME280;52653;50.080;21.992;2023-06-10T05:19:28;98891.91;;;20.24;77.72
65872;BME280;52653;50.080;21.992;2023-06-10T05:22:15;98895.02;;;20.19;77.62
65872;BME280;52653;50.080;21.992;2023-06-10T05:24:58;98898.40;;;20.13;77.43
65872;BME280;52653;50.080;21.992;2023-06-10T05:27:51;98905.98;;;20.04;77.69
65872;BME280;52653;50.080;21.992;2023-06-10T05:30:44;98903.77;;;19.98;77.84
65872;BME280;52653;50.080;21.992;2023-06-10T05:33:23;98908.52;;;19.96;77.84
65872;BME280;52653;50.080;21.992;2023-06-10T05:36:16;98909.40;;;19.99;78.16
65872;BME280;52653;50.080;21.992;2023-06-10T05:39:09;98910.90;;;20.05;78.50
65872;BME280;52653;50.080;21.992;2023-06-10T05:42:02;98912.77;;;20.14;78.30
65872;BME280;52653;50.080;21.992;2023-06-10T05:44:40;98914.77;;;20.20;77.44
65872;BME280;52653;50.080;21.992;2023-06-10T05:47:33;98920.70;;;20.22;77.12
65872;BME280;52653;50.080;21.992;2023-06-10T05:50:26;98923.83;;;20.31;77.13
65872;BME280;52653;50.080;21.992;2023-06-10T05:53:09;98925.34;;;20.43;77.83
65872;BME280;52653;50.080;21.992;2023-06-10T05:56:07;98925.24;;;20.62;77.28
65872;BME280;52653;50.080;21.992;2023-06-10T05:58:42;98923.18;;;20.80;76.69
65872;BME280;52653;50.080;21.992;2023-06-10T06:01:35;98924.83;;;20.99;75.89
65872;BME280;52653;50.080;21.992;2023-06-10T06:04:10;98928.33;;;21.20;75.08
65872;BME280;52653;50.080;21.992;2023-06-10T06:06:52;98929.86;;;21.44;74.23
65872;BME280;52653;50.080;21.992;2023-06-10T06:09:26;98931.48;;;21.68;73.93
65872;BME280;52653;50.080;21.992;2023-06-10T06:11:58;98928.83;;;21.87;72.90
65872;BME280;52653;50.080;21.992;2023-06-10T06:14:32;98927.26;;;22.08;72.10
65872;BME280;52653;50.080;21.992;2023-06-10T06:17:24;98927.94;;;22.38;71.56
65872;BME280;52653;50.080;21.992;2023-06-10T06:20:19;98924.71;;;22.67;70.31
65872;BME280;52653;50.080;21.992;2023-06-10T06:22:56;98930.36;;;22.95;70.35
65872;BME280;52653;50.080;21.992;2023-06-10T06:25:48;98929.67;;;23.20;68.35
65872;BME280;52653;50.080;21.992;2023-06-10T06:28:41;98925.77;;;23.30;66.13
65872;BME280;52653;50.080;21.992;2023-06-10T06:31:34;98929.36;;;23.30;65.32
65872;BME280;52653;50.080;21.992;2023-06-10T06:34:18;98926.64;;;23.33;65.07
65872;BME280;52653;50.080;21.992;2023-06-10T06:36:50;98929.80;;;23.32;65.71
65872;BME280;52653;50.080;21.992;2023-06-10T06:39:26;98930.00;;;23.34;66.14
65872;BME280;52653;50.080;21.992;2023-06-10T06:42:00;98928.20;;;23.23;64.95
65872;BME280;52653;50.080;21.992;2023-06-10T06:44:52;98933.05;;;23.03;64.63
65872;BME280;52653;50.080;21.992;2023-06-10T06:47:27;98934.42;;;23.04;65.82
65872;BME280;52653;50.080;21.992;2023-06-10T06:50:03;98937.46;;;23.18;65.77
65872;BME280;52653;50.080;21.992;2023-06-10T06:52:36;98937.95;;;23.28;65.35
65872;BME280;52653;50.080;21.992;2023-06-10T06:55:09;98939.43;;;23.30;65.42
65872;BME280;52653;50.080;21.992;2023-06-10T06:57:46;98940.83;;;23.35;65.10
65872;BME280;52653;50.080;21.992;2023-06-10T07:00:20;98940.19;;;23.37;64.12
65872;BME280;52653;50.080;21.992;2023-06-10T07:02:59;98943.74;;;23.23;62.82
65872;BME280;52653;50.080;21.992;2023-06-10T07:05:32;98945.91;;;23.18;63.10
65872;BME280;52653;50.080;21.992;2023-06-10T07:08:05;98947.33;;;23.12;63.64
65872;BME280;52653;50.080;21.992;2023-06-10T07:10:38;98948.38;;;23.07;63.56
65872;BME280;52653;50.080;21.992;2023-06-10T07:13:12;98940.63;;;23.03;63.69
65872;BME280;52653;50.080;21.992;2023-06-10T07:15:46;98939.33;;;22.98;63.92
65872;BME280;52653;50.080;21.992;2023-06-10T07:18:21;98943.63;;;22.89;63.61
65872;BME280;52653;50.080;21.992;2023-06-10T07:20:54;98941.29;;;22.80;63.57
65872;BME280;52653;50.080;21.992;2023-06-10T07:23:31;98937.38;;;22.74;63.83
65872;BME280;52653;50.080;21.992;2023-06-10T07:26:04;98939.91;;;22.68;64.25
65872;BME280;52653;50.080;21.992;2023-06-10T07:28:38;98937.68;;;22.71;64.63
65872;BME280;52653;50.080;21.992;2023-06-10T07:31:11;98935.48;;;22.75;64.11
65872;BME280;52653;50.080;21.992;2023-06-10T07:33:44;98939.06;;;22.84;64.16
65872;BME280;52653;50.080;21.992;2023-06-10T07:36:17;98939.91;;;22.97;63.76
65872;BME280;52653;50.080;21.992;2023-06-10T07:38:53;98938.95;;;23.12;63.57
65872;BME280;52653;50.080;21.992;2023-06-10T07:41:26;98943.71;;;23.30;62.49
65872;BME280;52653;50.080;21.992;2023-06-10T07:43:58;98945.30;;;23.41;61.51
65872;BME280;52653;50.080;21.992;2023-06-10T07:46:32;98945.14;;;23.52;61.15
65872;BME280;52653;50.080;21.992;2023-06-10T07:49:05;98947.66;;;23.63;60.47
65872;BME280;52653;50.080;21.992;2023-06-10T07:51:38;98953.91;;;23.80;60.18
65872;BME280;52653;50.080;21.992;2023-06-10T07:54:10;98955.86;;;23.96;59.77
65872;BME280;52653;50.080;21.992;2023-06-10T07:56:50;98957.54;;;24.06;59.27
65872;BME280;52653;50.080;21.992;2023-06-10T07:59:26;98959.74;;;24.13;59.22
65872;BME280;52653;50.080;21.992;2023-06-10T08:01:59;98959.44;;;24.29;59.22
65872;BME280;52653;50.080;21.992;2023-06-10T08:04:32;98962.70;;;24.47;59.41
65872;BME280;52653;50.080;21.992;2023-06-10T08:07:07;98965.04;;;24.62;58.00
65872;BME280;52653;50.080;21.992;2023-06-10T08:10:00;98964.27;;;24.89;57.55
65872;BME280;52653;50.080;21.992;2023-06-10T08:12:33;98969.19;;;25.11;56.62
65872;BME280;52653;50.080;21.992;2023-06-10T08:15:16;98972.14;;;25.25;56.49
65872;BME280;52653;50.080;21.992;2023-06-10T08:17:58;98974.43;;;25.38;56.05
65872;BME280;52653;50.080;21.992;2023-06-10T08:20:33;98975.40;;;25.46;56.31
65872;BME280;52653;50.080;21.992;2023-06-10T08:23:06;98975.88;;;25.47;54.67
65872;BME280;52653;50.080;21.992;2023-06-10T08:25:41;98976.79;;;25.45;55.07
65872;BME280;52653;50.080;21.992;2023-06-10T08:28:18;98978.88;;;25.48;55.28
65872;BME280;52653;50.080;21.992;2023-06-10T08:31:01;98976.27;;;25.69;56.11
65872;BME280;52653;50.080;21.992;2023-06-10T08:33:37;98978.61;;;25.84;55.66
65872;BME280;52653;50.080;21.992;2023-06-10T08:36:12;98981.45;;;25.89;54.33
65872;BME280;52653;50.080;21.992;2023-06-10T08:38:45;98981.73;;;25.73;53.28
65872;BME280;52653;50.080;21.992;2023-06-10T08:41:19;98979.52;;;25.66;54.32
65872;BME280;52653;50.080;21.992;2023-06-10T08:44:02;98979.54;;;25.66;54.75
65872;BME280;52653;50.080;21.992;2023-06-10T08:46:40;98985.41;;;25.60;54.21
65872;BME280;52653;50.080;21.992;2023-06-10T08:49:20;98985.35;;;25.53;54.31
65872;BME280;52653;50.080;21.992;2023-06-10T08:52:19;98986.26;;;25.48;54.05
65872;BME280;52653;50.080;21.992;2023-06-10T08:55:11;98983.94;;;25.45;54.86
65872;BME280;52653;50.080;21.992;2023-06-10T08:57:49;98984.39;;;25.59;55.26
65872;BME280;52653;50.080;21.992;2023-06-10T09:00:26;98987.52;;;25.70;55.11
65872;BME280;52653;50.080;21.992;2023-06-10T09:03:10;98987.43;;;25.94;55.45
65872;BME280;52653;50.080;21.992;2023-06-10T09:05:49;98984.69;;;26.18;54.33
65872;BME280;52653;50.080;21.992;2023-06-10T09:08:34;98983.25;;;26.27;53.51
65872;BME280;52653;50.080;21.992;2023-06-10T09:11:11;98982.95;;;26.41;53.28
65872;BME280;52653;50.080;21.992;2023-06-10T09:13:55;98985.73;;;26.45;52.44
65872;BME280;52653;50.080;21.992;2023-06-10T09:16:28;98979.35;;;26.51;53.19
65872;BME280;52653;50.080;21.992;2023-06-10T09:19:00;98984.05;;;26.62;52.51
65872;BME280;52653;50.080;21.992;2023-06-10T09:21:43;98984.18;;;26.67;52.65
65872;BME280;52653;50.080;21.992;2023-06-10T09:24:18;98984.19;;;26.81;52.38
65872;BME280;52653;50.080;21.992;2023-06-10T09:27:11;98986.27;;;26.96;51.55
65872;BME280;52653;50.080;21.992;2023-06-10T09:30:05;98987.78;;;27.05;50.73
65872;BME280;52653;50.080;21.992;2023-06-10T09:33:00;98995.00;;;27.02;51.23
65872;BME280;52653;50.080;21.992;2023-06-10T09:35:54;98989.84;;;27.08;51.04
65872;BME280;52653;50.080;21.992;2023-06-10T09:38:51;98992.65;;;27.27;50.34
65872;BME280;52653;50.080;21.992;2023-06-10T09:41:33;98993.39;;;27.38;49.08
65872;BME280;52653;50.080;21.992;2023-06-10T09:44:26;98993.70;;;27.47;49.59
65872;BME280;52653;50.080;21.992;2023-06-10T09:47:24;98997.78;;;27.41;48.48
65872;BME280;52653;50.080;21.992;2023-06-10T09:49:59;98993.70;;;27.29;48.40
65872;BME280;52653;50.080;21.992;2023-06-10T09:52:33;98993.16;;;27.27;49.35
65872;BME280;52653;50.080;21.992;2023-06-10T09:55:14;98994.91;;;27.30;49.46
65872;BME280;52653;50.080;21.992;2023-06-10T09:57:54;98991.70;;;27.45;49.73
65872;BME280;52653;50.080;21.992;2023-06-10T10:00:31;98996.95;;;27.54;49.03
65872;BME280;52653;50.080;21.992;2023-06-10T10:03:08;98992.15;;;27.53;48.70
65872;BME280;52653;50.080;21.992;2023-06-10T10:05:46;98990.90;;;27.44;48.89
65872;BME280;52653;50.080;21.992;2023-06-10T10:08:29;98989.81;;;27.31;48.84
65872;BME280;52653;50.080;21.992;2023-06-10T10:11:03;98986.19;;;27.15;49.71
65872;BME280;52653;50.080;21.992;2023-06-10T10:13:39;98985.67;;;27.08;49.42
65872;BME280;52653;50.080;21.992;2023-06-10T10:16:14;98986.03;;;26.99;50.03
65872;BME280;52653;50.080;21.992;2023-06-10T10:18:54;98986.05;;;26.94;50.01
65872;BME280;52653;50.080;21.992;2023-06-10T10:21:30;98982.69;;;27.03;51.11
65872;BME280;52653;50.080;21.992;2023-06-10T10:24:12;98980.52;;;27.23;51.14
65872;BME280;52653;50.080;21.992;2023-06-10T10:26:49;98983.31;;;27.28;50.59
65872;BME280;52653;50.080;21.992;2023-06-10T10:29:27;98983.02;;;27.30;50.15
65872;BME280;52653;50.080;21.992;2023-06-10T10:32:07;98984.50;;;27.20;50.25
65872;BME280;52653;50.080;21.992;2023-06-10T10:35:00;98987.67;;;27.06;49.63
65872;BME280;52653;50.080;21.992;2023-06-10T10:37:56;98993.94;;;26.85;49.25
65872;BME280;52653;50.080;21.992;2023-06-10T10:40:33;98992.63;;;26.58;49.75
65872;BME280;52653;50.080;21.992;2023-06-10T10:43:14;98991.69;;;26.52;50.12
65872;BME280;52653;50.080;21.992;2023-06-10T10:46:02;98996.30;;;26.53;50.57
65872;BME280;52653;50.080;21.992;2023-06-10T10:48:38;98997.98;;;26.63;50.40
65872;BME280;52653;50.080;21.992;2023-06-10T10:51:35;98995.95;;;26.85;49.74
65872;BME280;52653;50.080;21.992;2023-06-10T10:54:18;98999.08;;;27.05;49.80
65872;BME280;52653;50.080;21.992;2023-06-10T10:57:11;98993.18;;;27.25;49.84
65872;BME280;52653;50.080;21.992;2023-06-10T10:59:52;98999.13;;;27.32;49.09
65872;BME280;52653;50.080;21.992;2023-06-10T11:02:42;98995.46;;;27.35;49.19
65872;BME280;52653;50.080;21.992;2023-06-10T11:05:42;98998.80;;;27.31;48.56
65872;BME280;52653;50.080;21.992;2023-06-10T11:08:49;98992.99;;;27.24;49.72
65872;BME280;52653;50.080;21.992;2023-06-10T11:11:26;98989.28;;;27.46;49.81
65872;BME280;52653;50.080;21.992;2023-06-10T11:14:14;98988.83;;;27.64;48.95
65872;BME280;52653;50.080;21.992;2023-06-10T11:17:20;98987.20;;;27.54;48.50
65872;BME280;52653;50.080;21.992;2023-06-10T11:20:13;98988.13;;;27.51;48.93
65872;BME280;52653;50.080;21.992;2023-06-10T11:23:09;98987.29;;;27.35;48.55
65872;BME280;52653;50.080;21.992;2023-06-10T11:25:42;98986.58;;;27.20;48.59
65872;BME280;52653;50.080;21.992;2023-06-10T11:28:35;98988.39;;;26.92;49.03
65872;BME280;52653;50.080;21.992;2023-06-10T11:31:29;98984.94;;;26.64;49.39
65872;BME280;52653;50.080;21.992;2023-06-10T11:34:24;98986.17;;;26.60;50.36
65872;BME280;52653;50.080;21.992;2023-06-10T11:37:20;98986.20;;;26.80;50.83
65872;BME280;52653;50.080;21.992;2023-06-10T11:39:56;98987.16;;;27.05;50.08
65872;BME280;52653;50.080;21.992;2023-06-10T11:42:41;98983.52;;;27.35;50.48
65872;BME280;52653;50.080;21.992;2023-06-10T11:45:17;98980.64;;;27.62;50.01
65872;BME280;52653;50.080;21.992;2023-06-10T11:48:00;98979.52;;;27.80;49.43
65872;BME280;52653;50.080;21.992;2023-06-10T11:50:34;98976.86;;;27.95;48.93
65872;BME280;52653;50.080;21.992;2023-06-10T11:53:07;98981.91;;;28.03;48.53
65872;BME280;52653;50.080;21.992;2023-06-10T11:55:45;98986.98;;;27.84;46.72
65872;BME280;52653;50.080;21.992;2023-06-10T11:58:19;98987.70;;;27.59;47.69
65872;BME280;52653;50.080;21.992;2023-06-10T12:00:53;98989.16;;;27.54;48.51
65872;BME280;52653;50.080;21.992;2023-06-10T12:03:28;98985.70;;;27.57;48.03
65872;BME280;52653;50.080;21.992;2023-06-10T12:06:08;98991.36;;;27.56;48.55
65872;BME280;52653;50.080;21.992;2023-06-10T12:08:44;98987.80;;;27.56;48.90
65872;BME280;52653;50.080;21.992;2023-06-10T12:11:17;98982.20;;;27.47;49.13
65872;BME280;52653;50.080;21.992;2023-06-10T12:13:50;98985.46;;;27.44;48.94
65872;BME280;52653;50.080;21.992;2023-06-10T12:16:49;98985.80;;;27.45;49.51
65872;BME280;52653;50.080;21.992;2023-06-10T12:19:24;98982.42;;;27.53;48.80
65872;BME280;52653;50.080;21.992;2023-06-10T12:22:01;98981.20;;;27.35;48.25
65872;BME280;52653;50.080;21.992;2023-06-10T12:24:45;98976.92;;;27.12;49.57
65872;BME280;52653;50.080;21.992;2023-06-10T12:27:19;98979.80;;;26.96;49.84
65872;BME280;52653;50.080;21.992;2023-06-10T12:29:53;98983.86;;;26.67;50.05
65872;BME280;52653;50.080;21.992;2023-06-10T12:32:39;98978.56;;;26.50;51.04
65872;BME280;52653;50.080;21.992;2023-06-10T12:35:16;98974.22;;;26.57;50.97
65872;BME280;52653;50.080;21.992;2023-06-10T12:37:55;98974.11;;;26.63;50.91
65872;BME280;52653;50.080;21.992;2023-06-10T12:40:29;98976.11;;;26.58;50.93
65872;BME280;52653;50.080;21.992;2023-06-10T12:43:03;98970.67;;;26.47;50.52
65872;BME280;52653;50.080;21.992;2023-06-10T12:45:37;98970.23;;;26.36;51.92
65872;BME280;52653;50.080;21.992;2023-06-10T12:48:22;98969.70;;;26.21;51.86
65872;BME280;52653;50.080;21.992;2023-06-10T12:50:59;98964.25;;;26.10;51.71
65872;BME280;52653;50.080;21.992;2023-06-10T12:53:32;98958.81;;;25.77;52.24
65872;BME280;52653;50.080;21.992;2023-06-10T12:56:06;98953.35;;;25.49;52.59
65872;BME280;52653;50.080;21.992;2023-06-10T12:58:40;98951.40;;;25.48;54.08
65872;BME280;52653;50.080;21.992;2023-06-10T13:01:20;98951.94;;;25.68;54.53
65872;BME280;52653;50.080;21.992;2023-06-10T13:03:53;98953.38;;;25.77;52.38
65872;BME280;52653;50.080;21.992;2023-06-10T13:06:28;98950.45;;;25.76;52.48
65872;BME280;52653;50.080;21.992;2023-06-10T13:09:01;98950.44;;;25.88;53.76
65872;BME280;52653;50.080;21.992;2023-06-10T13:11:35;98954.69;;;25.94;53.47
65872;BME280;52653;50.080;21.992;2023-06-10T13:14:09;98956.31;;;25.96;53.44
65872;BME280;52653;50.080;21.992;2023-06-10T13:16:45;98958.82;;;25.79;52.64
65872;BME280;52653;50.080;21.992;2023-06-10T13:19:18;98956.67;;;25.57;52.94
65872;BME280;52653;50.080;21.992;2023-06-10T13:21:53;98957.73;;;25.37;53.72
65872;BME280;52653;50.080;21.992;2023-06-10T13:24:28;98961.81;;;25.31;53.66
65872;BME280;52653;50.080;21.992;2023-06-10T13:27:05;98959.14;;;25.28;53.49
65872;BME280;52653;50.080;21.992;2023-06-10T13:29:41;98958.77;;;25.03;53.42
65872;BME280;52653;50.080;21.992;2023-06-10T13:32:17;98960.84;;;24.86;54.32
65872;BME280;52653;50.080;21.992;2023-06-10T13:34:50;98958.00;;;24.83;54.40
65872;BME280;52653;50.080;21.992;2023-06-10T13:37:25;98958.36;;;24.86;54.80
65872;BME280;52653;50.080;21.992;2023-06-10T13:40:01;98958.27;;;24.85;54.24
65872;BME280;52653;50.080;21.992;2023-06-10T13:42:38;98962.30;;;24.73;54.62
65872;BME280;52653;50.080;21.992;2023-06-10T13:45:11;98965.68;;;24.69;54.60
65872;BME280;52653;50.080;21.992;2023-06-10T13:47:44;98964.11;;;24.71;54.03
65872;BME280;52653;50.080;21.992;2023-06-10T13:50:21;98966.42;;;24.58;54.58
65872;BME280;52653;50.080;21.992;2023-06-10T13:52:56;98960.87;;;24.45;55.12
65872;BME280;52653;50.080;21.992;2023-06-10T13:55:33;98959.71;;;24.41;55.51
65872;BME280;52653;50.080;21.992;2023-06-10T13:58:07;98964.17;;;24.35;54.99
65872;BME280;52653;50.080;21.992;2023-06-10T14:00:41;98959.67;;;24.20;54.79
65872;BME280;52653;50.080;21.992;2023-06-10T14:03:14;98966.67;;;24.01;55.54
65872;BME280;52653;50.080;21.992;2023-06-10T14:05:49;98962.20;;;23.76;56.20
65872;BME280;52653;50.080;21.992;2023-06-10T14:08:32;98961.54;;;23.59;56.78
65872;BME280;52653;50.080;21.992;2023-06-10T14:11:06;98965.34;;;23.38;57.02
65872;BME280;52653;50.080;21.992;2023-06-10T14:13:42;98962.75;;;23.23;57.63
65872;BME280;52653;50.080;21.992;2023-06-10T14:16:15;98962.67;;;23.08;57.60
65872;BME280;52653;50.080;21.992;2023-06-10T14:18:51;98960.83;;;22.91;58.01